Wetterdaten: Woche 10.10.16 - 16.10.16 (KW41)
Datum Zeit Temp. A. Feuchte A. Luftdruck Regen Wind Richtung Sonnenschein ET UV Solar Taupunkt Windchill Windben Empfang
10.10.2016 00:00 4,1 C 96 % 1023,1 hPa 0,0 l/m 1,6 km/h (1 Bft) O 0,00 h 0,000 mm 0,0 UV-I 0 W/m 3,4 C 4,1 C 2,8 km/h (1 Bft) 97,49 %
10.10.2016 01:00 3,4 C 96 % 1023,1 hPa 0,0 l/m 1,5 km/h (1 Bft) O 0,00 h 0,000 mm 0,0 UV-I 0 W/m 2,9 C 3,4 C 2,8 km/h (1 Bft) 99,21 %
10.10.2016 02:00 3,1 C 96 % 1023,0 hPa 0,0 l/m 1,7 km/h (1 Bft) O 0,00 h 0,000 mm 0,0 UV-I 0 W/m 2,6 C 3,1 C 2,9 km/h (1 Bft) 97,95 %
10.10.2016 03:00 2,6 C 97 % 1022,8 hPa 0,0 l/m 0,2 km/h (0 Bft) S-SO 0,00 h 0,000 mm 0,0 UV-I 0 W/m 2,2 C 2,6 C 0,4 km/h (0 Bft) 98,51 %
10.10.2016 04:00 2,6 C 97 % 1022,7 hPa 0,0 l/m 1,1 km/h (1 Bft) S-SO 0,00 h 0,000 mm 0,0 UV-I 0 W/m 2,1 C 2,6 C 2,2 km/h (1 Bft) 98,52 %
10.10.2016 05:00 1,9 C 97 % 1022,7 hPa 0,0 l/m 1,7 km/h (1 Bft) S-SO 0,00 h 0,000 mm 0,0 UV-I 0 W/m 1,5 C 1,9 C 3,4 km/h (1 Bft) 98,22 %
10.10.2016 06:00 2,0 C 97 % 1022,7 hPa 0,2 l/m 2,5 km/h (1 Bft) S-SW 0,00 h 0,000 mm 0,0 UV-I 0 W/m 1,6 C 2,0 C 4,1 km/h (1 Bft) 98,40 %
10.10.2016 07:00 1,7 C 98 % 1022,9 hPa 0,0 l/m 2,6 km/h (1 Bft) S 0,00 h 0,000 mm 0,0 UV-I 16 W/m 1,5 C 1,7 C 4,6 km/h (1 Bft) 97,74 %
10.10.2016 08:00 2,4 C 98 % 1023,0 hPa 0,0 l/m 2,2 km/h (1 Bft) S 0,00 h 0,000 mm 0,0 UV-I 58 W/m 2,1 C 2,4 C 3,9 km/h (1 Bft) 98,31 %
10.10.2016 09:00 3,6 C 98 % 1023,1 hPa 0,0 l/m 1,0 km/h (0 Bft) S 0,00 h 0,025 mm 0,0 UV-I 59 W/m 3,3 C 3,6 C 2,1 km/h (1 Bft) 97,85 %
10.10.2016 10:00 4,8 C 98 % 1023,1 hPa 0,0 l/m 1,2 km/h (1 Bft) S 0,00 h 0,026 mm 0,6 UV-I 142 W/m 4,5 C 4,8 C 2,9 km/h (1 Bft) 98,47 %
10.10.2016 11:00 7,1 C 95 % 1022,7 hPa 0,0 l/m 5,1 km/h (1 Bft) O-NO 0,63 h 0,051 mm 1,2 UV-I 341 W/m 6,3 C 6,9 C 8,6 km/h (2 Bft) 98,02 %
10.10.2016 12:00 9,2 C 82 % 1022,1 hPa 0,0 l/m 8,9 km/h (2 Bft) NO 1,00 h 0,152 mm 1,7 UV-I 522 W/m 6,3 C 7,5 C 14,4 km/h (3 Bft) 97,09 %
10.10.2016 13:00 10,0 C 75 % 1021,5 hPa 0,0 l/m 10,2 km/h (2 Bft) O-NO 0,80 h 0,254 mm 1,4 UV-I 376 W/m 5,7 C 7,6 C 16,6 km/h (3 Bft) 99,09 %
10.10.2016 14:00 10,3 C 71 % 1020,8 hPa 0,0 l/m 10,3 km/h (2 Bft) O-NO 0,90 h 0,203 mm 1,3 UV-I 360 W/m 5,3 C 7,8 C 16,1 km/h (3 Bft) 97,79 %
10.10.2016 15:00 10,8 C 70 % 1020,3 hPa 0,0 l/m 13,1 km/h (3 Bft) NO 0,77 h 0,203 mm 0,9 UV-I 350 W/m 5,5 C 7,0 C 20,4 km/h (4 Bft) 99,17 %
10.10.2016 16:00 9,4 C 77 % 1020,1 hPa 0,0 l/m 14,4 km/h (3 Bft) NO 0,77 h 0,204 mm 0,5 UV-I 211 W/m 5,7 C 4,8 C 22,3 km/h (4 Bft) 97,71 %
10.10.2016 17:00 8,3 C 79 % 1020,0 hPa 0,0 l/m 6,1 km/h (2 Bft) NO 0,07 h 0,127 mm 0,0 UV-I 43 W/m 4,8 C 7,6 C 9,6 km/h (2 Bft) 98,98 %
10.10.2016 18:00 7,6 C 85 % 1020,0 hPa 0,0 l/m 1,8 km/h (1 Bft) O 0,17 h 0,025 mm 0,0 UV-I 14 W/m 5,2 C 7,6 C 3,3 km/h (1 Bft) 98,23 %
10.10.2016 19:00 7,2 C 88 % 1020,1 hPa 0,0 l/m 1,8 km/h (1 Bft) O-NO 0,00 h 0,000 mm 0,0 UV-I 0 W/m 5,4 C 7,2 C 3,4 km/h (1 Bft) 98,85 %
10.10.2016 20:00 6,8 C 91 % 1020,0 hPa 0,0 l/m 1,9 km/h (1 Bft) O-NO 0,00 h 0,000 mm 0,0 UV-I 0 W/m 5,4 C 6,8 C 3,3 km/h (1 Bft) 97,93 %
10.10.2016 21:00 6,6 C 92 % 1020,0 hPa 0,0 l/m 1,4 km/h (1 Bft) O 0,00 h 0,000 mm 0,0 UV-I 0 W/m 5,4 C 6,6 C 2,5 km/h (1 Bft) 99,29 %
10.10.2016 22:00 6,4 C 94 % 1019,8 hPa 0,0 l/m 0,2 km/h (0 Bft) O 0,00 h 0,000 mm 0,0 UV-I 0 W/m 5,5 C 6,4 C 0,9 km/h (0 Bft) 97,66 %
10.10.2016 23:00 6,4 C 94 % 1019,6 hPa 0,0 l/m 1,1 km/h (1 Bft) O-NO 0,00 h 0,000 mm 0,0 UV-I 0 W/m 5,6 C 6,4 C 2,0 km/h (1 Bft) 99,23 %
11.10.2016 00:00 6,5 C 94 % 1019,2 hPa 0,0 l/m 1,5 km/h (1 Bft) O-NO 0,00 h 0,000 mm 0,0 UV-I 0 W/m 5,5 C 6,5 C 2,7 km/h (1 Bft) 97,44 %
11.10.2016 01:00 6,3 C 95 % 1018,9 hPa 0,2 l/m 1,4 km/h (1 Bft) O-NO 0,00 h 0,000 mm 0,0 UV-I 0 W/m 5,6 C 6,3 C 2,6 km/h (1 Bft) 99,30 %
11.10.2016 02:00 6,1 C 95 % 1018,5 hPa 0,2 l/m 0,6 km/h (0 Bft) O 0,00 h 0,000 mm 0,0 UV-I 0 W/m 5,4 C 6,1 C 1,1 km/h (0 Bft) 97,75 %
11.10.2016 03:00 6,1 C 96 % 1018,0 hPa 0,0 l/m 0,5 km/h (0 Bft) O 0,00 h 0,000 mm 0,0 UV-I 0 W/m 5,5 C 6,1 C 1,3 km/h (1 Bft) 99,44 %
11.10.2016 04:00 6,0 C 97 % 1017,7 hPa 0,0 l/m 2,0 km/h (1 Bft) NO 0,00 h 0,000 mm 0,0 UV-I 0 W/m 5,6 C 6,0 C 3,7 km/h (1 Bft) 97,66 %
11.10.2016 05:00 5,8 C 96 % 1017,5 hPa 0,0 l/m 3,8 km/h (1 Bft) O-NO 0,00 h 0,000 mm 0,0 UV-I 0 W/m 5,3 C 5,8 C 6,4 km/h (2 Bft) 99,04 %
11.10.2016 06:00 5,6 C 95 % 1017,2 hPa 0,0 l/m 3,5 km/h (1 Bft) O-NO 0,00 h 0,000 mm 0,0 UV-I 0 W/m 4,8 C 5,6 C 5,4 km/h (1 Bft) 97,85 %
11.10.2016 07:00 5,3 C 94 % 1017,2 hPa 0,0 l/m 3,4 km/h (1 Bft) O-NO 0,00 h 0,000 mm 0,0 UV-I 16 W/m 4,5 C 5,3 C 5,3 km/h (1 Bft) 99,05 %
11.10.2016 08:00 5,5 C 95 % 1017,2 hPa 0,0 l/m 1,8 km/h (1 Bft) NO 0,00 h 0,000 mm 0,0 UV-I 60 W/m 4,8 C 5,5 C 3,7 km/h (1 Bft) 97,57 %
11.10.2016 09:00 6,4 C 94 % 1017,1 hPa 0,0 l/m 2,0 km/h (1 Bft) N-NO 0,03 h 0,025 mm 0,0 UV-I 128 W/m 5,4 C 6,4 C 4,9 km/h (1 Bft) 99,23 %
11.10.2016 10:00 7,2 C 88 % 1016,9 hPa 0,0 l/m 4,0 km/h (1 Bft) N-NO 0,10 h 0,051 mm 0,6 UV-I 187 W/m 5,4 C 7,1 C 7,8 km/h (2 Bft) 97,67 %
11.10.2016 11:00 8,2 C 82 % 1016,6 hPa 0,0 l/m 4,7 km/h (1 Bft) NO 0,45 h 0,076 mm 0,9 UV-I 278 W/m 5,2 C 8,2 C 7,6 km/h (2 Bft) 98,26 %
11.10.2016 12:00 8,4 C 77 % 1016,2 hPa 0,0 l/m 5,0 km/h (1 Bft) NO 0,17 h 0,127 mm 0,9 UV-I 258 W/m 4,5 C 8,1 C 8,6 km/h (2 Bft) 98,62 %
11.10.2016 13:00 8,3 C 76 % 1015,8 hPa 0,2 l/m 4,1 km/h (1 Bft) O-NO 0,00 h 0,127 mm 0,8 UV-I 156 W/m 4,3 C 8,2 C 6,6 km/h (2 Bft) 98,12 %
11.10.2016 14:00 7,3 C 83 % 1015,5 hPa 0,0 l/m 1,2 km/h (1 Bft) W-NW 0,00 h 0,077 mm 0,5 UV-I 131 W/m 4,6 C 7,3 C 2,6 km/h (1 Bft) 98,72 %
11.10.2016 15:00 7,9 C 83 % 1015,1 hPa 0,0 l/m 2,1 km/h (1 Bft) NW 0,13 h 0,050 mm 0,6 UV-I 193 W/m 5,1 C 7,9 C 5,2 km/h (1 Bft) 98,71 %
11.10.2016 16:00 7,8 C 81 % 1015,1 hPa 0,0 l/m 1,7 km/h (1 Bft) W 0,10 h 0,077 mm 0,4 UV-I 117 W/m 4,8 C 7,8 C 3,8 km/h (1 Bft) 98,17 %
11.10.2016 17:00 6,6 C 88 % 1015,2 hPa 0,8 l/m 2,7 km/h (1 Bft) N-NW 0,00 h 0,050 mm 0,0 UV-I 16 W/m 4,7 C 6,5 C 7,3 km/h (2 Bft) 99,50 %
11.10.2016 18:00 5,6 C 92 % 1015,2 hPa 0,4 l/m 3,0 km/h (1 Bft) W-SW 0,00 h 0,000 mm 0,0 UV-I 5 W/m 4,4 C 5,6 C 5,0 km/h (1 Bft) 98,22 %
11.10.2016 19:00 5,1 C 94 % 1015,4 hPa 0,2 l/m 0,7 km/h (0 Bft) W-SW 0,00 h 0,000 mm 0,0 UV-I 0 W/m 4,3 C 5,1 C 2,4 km/h (1 Bft) 99,09 %
11.10.2016 20:00 4,8 C 95 % 1015,6 hPa 0,0 l/m 1,6 km/h (1 Bft) W-SW 0,00 h 0,000 mm 0,0 UV-I 0 W/m 4,0 C 4,8 C 3,4 km/h (1 Bft) 98,07 %
11.10.2016 21:00 4,8 C 95 % 1015,6 hPa 0,0 l/m 0,8 km/h (0 Bft) W 0,00 h 0,000 mm 0,0 UV-I 0 W/m 4,1 C 4,8 C 2,3 km/h (1 Bft) 99,66 %
11.10.2016 22:00 4,9 C 96 % 1015,7 hPa 0,2 l/m 0,7 km/h (0 Bft) W 0,00 h 0,000 mm 0,0 UV-I 0 W/m 4,3 C 4,9 C 2,0 km/h (1 Bft) 97,64 %
11.10.2016 23:00 4,9 C 96 % 1015,6 hPa 0,4 l/m 3,1 km/h (1 Bft) W-SW 0,00 h 0,000 mm 0,0 UV-I 0 W/m 4,3 C 4,9 C 4,9 km/h (1 Bft) 99,60 %
12.10.2016 00:00 4,9 C 96 % 1015,4 hPa 0,2 l/m 5,9 km/h (2 Bft) W-SW 0,00 h 0,000 mm 0,0 UV-I 0 W/m 4,3 C 4,6 C 9,3 km/h (2 Bft) 97,78 %
12.10.2016 01:00 4,9 C 96 % 1015,3 hPa 1,4 l/m 5,5 km/h (1 Bft) W-SW 0,00 h 0,000 mm 0,0 UV-I 0 W/m 4,3 C 4,7 C 9,5 km/h (2 Bft) 99,55 %
12.10.2016 02:00 4,8 C 96 % 1015,2 hPa 2,2 l/m 7,5 km/h (2 Bft) W-SW 0,00 h 0,000 mm 0,0 UV-I 0 W/m 4,2 C 3,6 C 12,1 km/h (2 Bft) 97,79 %
12.10.2016 03:00 4,7 C 96 % 1015,0 hPa 1,4 l/m 9,0 km/h (2 Bft) W-SW 0,00 h 0,000 mm 0,0 UV-I 0 W/m 4,0 C 2,5 C 13,9 km/h (3 Bft) 99,39 %
12.10.2016 04:00 4,6 C 96 % 1014,9 hPa 1,0 l/m 8,9 km/h (2 Bft) W-SW 0,00 h 0,000 mm 0,0 UV-I 0 W/m 4,0 C 2,6 C 13,6 km/h (3 Bft) 97,99 %
12.10.2016 05:00 4,6 C 96 % 1014,9 hPa 1,0 l/m 11,7 km/h (2 Bft) SW 0,00 h 0,000 mm 0,0 UV-I 0 W/m 4,0 C 0,6 C 17,6 km/h (3 Bft) 99,56 %
12.10.2016 06:00 4,7 C 96 % 1015,0 hPa 0,4 l/m 10,9 km/h (2 Bft) SW 0,00 h 0,000 mm 0,0 UV-I 0 W/m 4,1 C 1,2 C 17,1 km/h (3 Bft) 97,90 %
12.10.2016 07:00 4,6 C 96 % 1015,2 hPa 0,4 l/m 10,9 km/h (2 Bft) SW 0,00 h 0,000 mm 0,0 UV-I 1 W/m 4,0 C 1,1 C 16,9 km/h (3 Bft) 99,46 %
12.10.2016 08:00 4,6 C 96 % 1015,6 hPa 0,6 l/m 11,6 km/h (2 Bft) SW 0,00 h 0,000 mm 0,0 UV-I 16 W/m 4,0 C 0,6 C 18,3 km/h (3 Bft) 98,10 %
12.10.2016 09:00 4,8 C 96 % 1016,0 hPa 0,6 l/m 9,3 km/h (2 Bft) SW 0,00 h 0,000 mm 0,0 UV-I 34 W/m 4,2 C 2,4 C 15,0 km/h (3 Bft) 99,40 %
12.10.2016 10:00 5,5 C 96 % 1016,4 hPa 0,4 l/m 8,0 km/h (2 Bft) W-SW 0,00 h 0,025 mm 0,4 UV-I 81 W/m 5,0 C 3,8 C 13,1 km/h (3 Bft) 97,85 %
12.10.2016 11:00 6,0 C 96 % 1016,8 hPa 0,2 l/m 9,2 km/h (2 Bft) SW 0,00 h 0,026 mm 0,5 UV-I 101 W/m 5,4 C 3,8 C 14,8 km/h (3 Bft) 99,73 %
12.10.2016 12:00 5,9 C 96 % 1017,1 hPa 0,8 l/m 8,7 km/h (2 Bft) SW 0,00 h 0,051 mm 0,0 UV-I 62 W/m 5,3 C 4,1 C 13,4 km/h (3 Bft) 97,97 %
12.10.2016 13:00 6,3 C 96 % 1017,2 hPa 0,4 l/m 7,2 km/h (2 Bft) SW 0,00 h 0,025 mm 0,5 UV-I 70 W/m 5,8 C 5,5 C 11,7 km/h (2 Bft) 99,00 %
12.10.2016 14:00 6,2 C 96 % 1017,4 hPa 1,6 l/m 7,9 km/h (2 Bft) SW 0,00 h 0,025 mm 0,0 UV-I 37 W/m 5,6 C 4,8 C 13,4 km/h (3 Bft) 97,80 %
12.10.2016 15:00 6,4 C 95 % 1017,4 hPa 0,0 l/m 9,9 km/h (2 Bft) W-SW 0,00 h 0,026 mm 0,0 UV-I 63 W/m 5,7 C 3,8 C 15,8 km/h (3 Bft) 99,12 %
12.10.2016 16:00 6,3 C 95 % 1017,4 hPa 1,2 l/m 8,2 km/h (2 Bft) W-SW 0,00 h 0,025 mm 0,0 UV-I 36 W/m 5,6 C 4,7 C 12,9 km/h (3 Bft) 97,00 %
12.10.2016 17:00 6,3 C 96 % 1017,5 hPa 0,2 l/m 4,4 km/h (1 Bft) SW 0,00 h 0,026 mm 0,0 UV-I 7 W/m 5,7 C 6,3 C 6,7 km/h (2 Bft) 99,56 %
12.10.2016 18:00 6,3 C 96 % 1017,8 hPa 0,0 l/m 1,9 km/h (1 Bft) SW 0,00 h 0,000 mm 0,0 UV-I 0 W/m 5,7 C 6,3 C 3,8 km/h (1 Bft) 97,93 %
12.10.2016 19:00 6,3 C 96 % 1018,2 hPa 0,0 l/m 2,6 km/h (1 Bft) SW 0,00 h 0,000 mm 0,0 UV-I 0 W/m 5,7 C 6,3 C 3,9 km/h (1 Bft) 99,45 %
12.10.2016 20:00 6,1 C 97 % 1018,2 hPa 0,0 l/m 3,0 km/h (1 Bft) SW 0,00 h 0,000 mm 0,0 UV-I 0 W/m 5,7 C 6,1 C 5,1 km/h (1 Bft) 98,19 %
12.10.2016 21:00 5,9 C 97 % 1018,3 hPa 0,0 l/m 2,9 km/h (1 Bft) S-SW 0,00 h 0,000 mm 0,0 UV-I 0 W/m 5,4 C 5,9 C 4,6 km/h (1 Bft) 99,40 %
12.10.2016 22:00 5,8 C 97 % 1018,3 hPa 0,0 l/m 2,1 km/h (1 Bft) S-SW 0,00 h 0,000 mm 0,0 UV-I 0 W/m 5,4 C 5,8 C 3,9 km/h (1 Bft) 98,47 %
12.10.2016 23:00 5,7 C 97 % 1018,2 hPa 0,0 l/m 2,1 km/h (1 Bft) S-SO 0,00 h 0,000 mm 0,0 UV-I 0 W/m 5,3 C 5,7 C 4,4 km/h (1 Bft) 99,23 %
13.10.2016 00:00 5,5 C 97 % 1017,9 hPa 0,0 l/m 2,0 km/h (1 Bft) S-SO 0,00 h 0,000 mm 0,0 UV-I 0 W/m 5,0 C 5,5 C 4,1 km/h (1 Bft) 97,60 %
13.10.2016 01:00 4,5 C 97 % 1017,7 hPa 0,0 l/m 0,7 km/h (0 Bft) S-SO 0,00 h 0,000 mm 0,0 UV-I 0 W/m 4,0 C 4,5 C 1,7 km/h (1 Bft) 99,44 %
13.10.2016 02:00 3,8 C 97 % 1017,8 hPa 0,0 l/m 2,0 km/h (1 Bft) S 0,00 h 0,000 mm 0,0 UV-I 0 W/m 3,5 C 3,8 C 3,6 km/h (1 Bft) 97,85 %
13.10.2016 03:00 4,2 C 97 % 1017,7 hPa 0,0 l/m 1,0 km/h (0 Bft) S 0,00 h 0,000 mm 0,0 UV-I 0 W/m 3,9 C 4,2 C 2,0 km/h (1 Bft) 99,10 %
13.10.2016 04:00 4,6 C 97 % 1017,6 hPa 0,0 l/m 0,9 km/h (0 Bft) S 0,00 h 0,000 mm 0,0 UV-I 0 W/m 4,2 C 4,6 C 2,2 km/h (1 Bft) 97,91 %
13.10.2016 05:00 4,5 C 97 % 1017,4 hPa 0,0 l/m 0,2 km/h (0 Bft) S 0,00 h 0,000 mm 0,0 UV-I 0 W/m 4,1 C 4,5 C 0,7 km/h (0 Bft) 99,04 %
13.10.2016 06:00 4,0 C 98 % 1017,3 hPa 0,0 l/m 0,2 km/h (0 Bft) S 0,00 h 0,000 mm 0,0 UV-I 0 W/m 3,7 C 4,0 C 0,5 km/h (0 Bft) 98,25 %
13.10.2016 07:00 4,4 C 98 % 1017,1 hPa 0,0 l/m 0,0 km/h (0 Bft) N 0,00 h 0,000 mm 0,0 UV-I 11 W/m 4,1 C 4,4 C 0,1 km/h (0 Bft) 98,99 %
13.10.2016 08:00 4,9 C 98 % 1017,2 hPa 0,0 l/m 1,8 km/h (1 Bft) S 0,33 h 0,000 mm 0,0 UV-I 98 W/m 4,5 C 4,9 C 3,1 km/h (1 Bft) 98,00 %
13.10.2016 09:00 6,1 C 95 % 1017,4 hPa 0,0 l/m 5,3 km/h (1 Bft) O-NO 0,87 h 0,051 mm 0,6 UV-I 227 W/m 5,4 C 5,5 C 8,4 km/h (2 Bft) 99,32 %
13.10.2016 10:00 7,5 C 92 % 1017,1 hPa 0,0 l/m 11,6 km/h (2 Bft) NO 0,50 h 0,101 mm 0,9 UV-I 300 W/m 6,2 C 4,1 C 18,0 km/h (3 Bft) 98,51 %
13.10.2016 11:00 8,7 C 87 % 1016,7 hPa 0,0 l/m 16,6 km/h (3 Bft) O-NO 0,23 h 0,153 mm 1,1 UV-I 281 W/m 6,7 C 2,9 C 23,9 km/h (4 Bft) 98,53 %
13.10.2016 12:00 9,0 C 85 % 1016,2 hPa 0,0 l/m 19,2 km/h (3 Bft) NO 0,20 h 0,152 mm 1,2 UV-I 285 W/m 6,6 C 2,3 C 27,5 km/h (4 Bft) 98,69 %
13.10.2016 13:00 9,7 C 80 % 1015,3 hPa 0,0 l/m 22,5 km/h (4 Bft) NO 0,70 h 0,178 mm 1,5 UV-I 434 W/m 6,4 C 2,2 C 31,9 km/h (5 Bft) 97,60 %
13.10.2016 14:00 10,4 C 76 % 1014,6 hPa 0,0 l/m 22,5 km/h (4 Bft) O-NO 0,80 h 0,254 mm 1,3 UV-I 465 W/m 6,4 C 3,1 C 32,2 km/h (5 Bft) 99,60 %
13.10.2016 15:00 10,4 C 77 % 1014,5 hPa 0,0 l/m 21,1 km/h (4 Bft) NO 0,87 h 0,279 mm 0,8 UV-I 347 W/m 6,5 C 3,5 C 30,6 km/h (5 Bft) 97,88 %
13.10.2016 16:00 9,6 C 79 % 1014,2 hPa 0,0 l/m 23,4 km/h (4 Bft) O-NO 0,27 h 0,204 mm 0,4 UV-I 141 W/m 6,1 C 1,7 C 32,9 km/h (5 Bft) 99,34 %
13.10.2016 17:00 8,8 C 82 % 1014,0 hPa 0,0 l/m 23,3 km/h (4 Bft) O-NO 0,00 h 0,101 mm 0,0 UV-I 54 W/m 5,9 C 0,8 C 32,9 km/h (5 Bft) 97,76 %
13.10.2016 18:00 8,0 C 84 % 1014,0 hPa 0,0 l/m 21,6 km/h (4 Bft) NO 0,03 h 0,076 mm 0,0 UV-I 10 W/m 5,6 C 0,2 C 31,0 km/h (5 Bft) 99,24 %
13.10.2016 19:00 7,9 C 86 % 1014,0 hPa 0,0 l/m 21,1 km/h (4 Bft) NO 0,00 h 0,026 mm 0,0 UV-I 0 W/m 5,7 C 0,3 C 29,5 km/h (5 Bft) 97,99 %
13.10.2016 20:00 7,9 C 87 % 1013,9 hPa 0,0 l/m 22,1 km/h (4 Bft) O-NO 0,00 h 0,025 mm 0,0 UV-I 0 W/m 5,9 C -0,1 C 31,5 km/h (5 Bft) 99,64 %
13.10.2016 21:00 7,7 C 89 % 1013,6 hPa 0,0 l/m 21,6 km/h (4 Bft) O-NO 0,00 h 0,026 mm 0,0 UV-I 0 W/m 5,9 C -0,2 C 31,4 km/h (5 Bft) 97,97 %
13.10.2016 22:00 7,3 C 90 % 1013,6 hPa 0,0 l/m 18,2 km/h (3 Bft) O-NO 0,00 h 0,025 mm 0,0 UV-I 0 W/m 5,8 C 0,5 C 25,8 km/h (4 Bft) 99,52 %
13.10.2016 23:00 6,8 C 92 % 1013,6 hPa 0,0 l/m 16,3 km/h (3 Bft) O-NO 0,00 h 0,025 mm 0,0 UV-I 0 W/m 5,5 C 0,7 C 23,2 km/h (4 Bft) 97,97 %
14.10.2016 00:00 6,4 C 93 % 1013,3 hPa 0,0 l/m 15,7 km/h (3 Bft) O-NO 0,00 h 0,000 mm 0,0 UV-I 0 W/m 5,3 C 0,5 C 22,8 km/h (4 Bft) 99,72 %
14.10.2016 01:00 6,2 C 93 % 1013,2 hPa 0,0 l/m 12,3 km/h (3 Bft) O-NO 0,00 h 0,000 mm 0,0 UV-I 0 W/m 5,1 C 2,0 C 18,8 km/h (3 Bft) 98,25 %
14.10.2016 02:00 6,0 C 94 % 1013,0 hPa 0,0 l/m 9,9 km/h (2 Bft) O-NO 0,00 h 0,000 mm 0,0 UV-I 0 W/m 5,0 C 3,3 C 15,5 km/h (3 Bft) 99,14 %
14.10.2016 03:00 5,8 C 94 % 1012,8 hPa 0,0 l/m 9,1 km/h (2 Bft) NO 0,00 h 0,000 mm 0,0 UV-I 0 W/m 5,0 C 3,7 C 14,1 km/h (3 Bft) 98,24 %
14.10.2016 04:00 5,7 C 94 % 1012,6 hPa 0,0 l/m 8,4 km/h (2 Bft) O-NO 0,00 h 0,000 mm 0,0 UV-I 0 W/m 4,9 C 4,0 C 13,1 km/h (3 Bft) 99,19 %
14.10.2016 05:00 5,2 C 96 % 1012,4 hPa 0,0 l/m 6,4 km/h (2 Bft) NO 0,00 h 0,000 mm 0,0 UV-I 0 W/m 4,6 C 4,8 C 10,2 km/h (2 Bft) 97,93 %
14.10.2016 06:00 5,4 C 96 % 1012,5 hPa 0,0 l/m 7,2 km/h (2 Bft) NO 0,00 h 0,000 mm 0,0 UV-I 0 W/m 4,8 C 4,4 C 11,4 km/h (2 Bft) 99,12 %
14.10.2016 07:00 5,9 C 95 % 1012,2 hPa 0,0 l/m 15,1 km/h (3 Bft) NO 0,00 h 0,000 mm 0,0 UV-I 8 W/m 5,2 C 0,4 C 22,5 km/h (4 Bft) 97,55 %
14.10.2016 08:00 6,5 C 94 % 1012,3 hPa 0,0 l/m 18,6 km/h (3 Bft) O-NO 0,00 h 0,000 mm 0,0 UV-I 35 W/m 5,7 C -0,6 C 26,0 km/h (4 Bft) 99,51 %
14.10.2016 09:00 6,7 C 93 % 1012,1 hPa 0,0 l/m 19,2 km/h (3 Bft) O-NO 0,00 h 0,025 mm 0,0 UV-I 62 W/m 5,8 C -0,6 C 26,8 km/h (4 Bft) 98,01 %
14.10.2016 10:00 7,1 C 93 % 1011,9 hPa 0,0 l/m 17,7 km/h (3 Bft) O-NO 0,00 h 0,026 mm 0,5 UV-I 116 W/m 6,0 C 0,5 C 25,2 km/h (4 Bft) 99,51 %
14.10.2016 11:00 8,2 C 90 % 1012,2 hPa 0,0 l/m 18,6 km/h (3 Bft) O-NO 0,50 h 0,051 mm 1,3 UV-I 301 W/m 6,7 C 1,6 C 26,3 km/h (4 Bft) 98,27 %
14.10.2016 12:00 10,4 C 85 % 1011,6 hPa 0,0 l/m 19,2 km/h (3 Bft) O-NO 1,00 h 0,152 mm 2,0 UV-I 524 W/m 8,0 C 4,2 C 27,2 km/h (4 Bft) 99,72 %
14.10.2016 13:00 12,0 C 80 % 1011,1 hPa 0,0 l/m 19,9 km/h (4 Bft) O-NO 1,00 h 0,279 mm 1,9 UV-I 506 W/m 8,7 C 5,9 C 28,6 km/h (4 Bft) 98,60 %
14.10.2016 14:00 12,1 C 81 % 1010,2 hPa 0,0 l/m 20,2 km/h (4 Bft) O-NO 0,60 h 0,280 mm 1,2 UV-I 318 W/m 8,8 C 6,0 C 28,1 km/h (4 Bft) 98,83 %
14.10.2016 15:00 12,3 C 82 % 1010,0 hPa 0,0 l/m 15,8 km/h (3 Bft) O-NO 0,23 h 0,203 mm 0,6 UV-I 183 W/m 9,3 C 7,7 C 22,2 km/h (4 Bft) 99,10 %
14.10.2016 16:00 12,7 C 82 % 1009,3 hPa 0,0 l/m 15,7 km/h (3 Bft) O-NO 0,00 h 0,127 mm 0,0 UV-I 101 W/m 9,8 C 8,3 C 22,3 km/h (4 Bft) 98,25 %
14.10.2016 17:00 12,7 C 82 % 1009,2 hPa 0,0 l/m 19,4 km/h (3 Bft) O-NO 0,00 h 0,076 mm 0,0 UV-I 38 W/m 9,8 C 7,0 C 27,6 km/h (4 Bft) 99,47 %
14.10.2016 18:00 12,4 C 82 % 1009,3 hPa 0,0 l/m 22,3 km/h (4 Bft) O-NO 0,00 h 0,051 mm 0,0 UV-I 6 W/m 9,5 C 5,8 C 32,0 km/h (5 Bft) 97,61 %
14.10.2016 19:00 12,0 C 83 % 1009,5 hPa 0,0 l/m 18,2 km/h (3 Bft) O-NO 0,00 h 0,051 mm 0,0 UV-I 0 W/m 9,2 C 6,5 C 25,6 km/h (4 Bft) 98,96 %
14.10.2016 20:00 11,4 C 85 % 1009,1 hPa 0,0 l/m 16,3 km/h (3 Bft) O-NO 0,00 h 0,025 mm 0,0 UV-I 0 W/m 9,0 C 6,4 C 23,7 km/h (4 Bft) 98,30 %
14.10.2016 21:00 11,2 C 86 % 1008,9 hPa 0,0 l/m 16,3 km/h (3 Bft) O-NO 0,00 h 0,026 mm 0,0 UV-I 0 W/m 8,9 C 6,1 C 23,8 km/h (4 Bft) 99,34 %
14.10.2016 22:00 10,9 C 87 % 1008,6 hPa 0,0 l/m 15,7 km/h (3 Bft) O-NO 0,00 h 0,025 mm 0,0 UV-I 0 W/m 8,8 C 6,1 C 22,4 km/h (4 Bft) 98,63 %
14.10.2016 23:00 10,7 C 88 % 1008,2 hPa 0,0 l/m 11,7 km/h (2 Bft) NO 0,00 h 0,025 mm 0,0 UV-I 0 W/m 8,8 C 7,6 C 16,9 km/h (3 Bft) 98,92 %
15.10.2016 00:00 10,8 C 88 % 1008,2 hPa 0,0 l/m 11,7 km/h (2 Bft) O-NO 0,00 h 0,000 mm 0,0 UV-I 0 W/m 8,9 C 7,7 C 17,0 km/h (3 Bft) 98,73 %
15.10.2016 01:00 10,9 C 88 % 1007,8 hPa 0,0 l/m 7,2 km/h (2 Bft) O-NO 0,00 h 0,025 mm 0,0 UV-I 0 W/m 8,9 C 10,0 C 11,5 km/h (2 Bft) 99,13 %
15.10.2016 02:00 11,0 C 88 % 1007,4 hPa 0,0 l/m 9,7 km/h (2 Bft) NO 0,00 h 0,000 mm 0,0 UV-I 0 W/m 9,2 C 8,8 C 13,8 km/h (3 Bft) 98,25 %
15.10.2016 03:00 11,1 C 89 % 1007,2 hPa 0,8 l/m 7,7 km/h (2 Bft) O-NO 0,00 h 0,026 mm 0,0 UV-I 0 W/m 9,3 C 9,3 C 11,8 km/h (2 Bft) 99,31 %
15.10.2016 04:00 10,4 C 94 % 1006,4 hPa 0,0 l/m 5,7 km/h (1 Bft) NO 0,00 h 0,000 mm 0,0 UV-I 0 W/m 9,5 C 10,1 C 8,8 km/h (2 Bft) 98,43 %
15.10.2016 05:00 10,2 C 95 % 1006,3 hPa 0,0 l/m 3,7 km/h (1 Bft) N-NO 0,00 h 0,000 mm 0,0 UV-I 0 W/m 9,4 C 9,7 C 7,0 km/h (2 Bft) 98,49 %
15.10.2016 06:00 9,8 C 95 % 1007,2 hPa 0,0 l/m 3,5 km/h (1 Bft) S-SW 0,00 h 0,000 mm 0,0 UV-I 0 W/m 9,1 C 9,8 C 5,7 km/h (1 Bft) 98,75 %
15.10.2016 07:00 9,4 C 96 % 1008,6 hPa 0,0 l/m 6,8 km/h (2 Bft) S-SW 0,00 h 0,000 mm 0,0 UV-I 12 W/m 8,8 C 8,9 C 10,7 km/h (2 Bft) 98,87 %
15.10.2016 08:00 9,3 C 96 % 1009,9 hPa 0,0 l/m 4,3 km/h (1 Bft) SW 0,10 h 0,000 mm 0,0 UV-I 59 W/m 8,7 C 9,1 C 6,6 km/h (2 Bft) 99,27 %
15.10.2016 09:00 11,2 C 93 % 1011,1 hPa 0,0 l/m 5,1 km/h (1 Bft) W-SW 0,63 h 0,025 mm 0,6 UV-I 212 W/m 10,1 C 11,0 C 8,3 km/h (2 Bft) 98,33 %
15.10.2016 10:00 13,9 C 85 % 1012,1 hPa 0,0 l/m 5,6 km/h (1 Bft) W-SW 1,00 h 0,102 mm 1,1 UV-I 369 W/m 11,5 C 13,6 C 9,7 km/h (2 Bft) 98,24 %
15.10.2016 11:00 15,7 C 77 % 1012,7 hPa 0,0 l/m 7,5 km/h (2 Bft) W-SW 1,00 h 0,203 mm 1,6 UV-I 470 W/m 11,8 C 15,0 C 13,3 km/h (3 Bft) 99,04 %
15.10.2016 12:00 16,5 C 75 % 1013,0 hPa 0,0 l/m 5,8 km/h (2 Bft) W 0,97 h 0,279 mm 1,8 UV-I 466 W/m 12,0 C 16,3 C 11,7 km/h (2 Bft) 98,67 %
15.10.2016 13:00 17,5 C 71 % 1013,2 hPa 0,0 l/m 6,9 km/h (2 Bft) W 0,62 h 0,254 mm 1,8 UV-I 444 W/m 12,2 C 17,0 C 13,6 km/h (3 Bft) 98,82 %
15.10.2016 14:00 17,7 C 71 % 1013,4 hPa 0,0 l/m 4,3 km/h (1 Bft) W-SW 0,97 h 0,229 mm 1,4 UV-I 398 W/m 12,3 C 17,6 C 9,1 km/h (2 Bft) 99,04 %
15.10.2016 15:00 18,5 C 67 % 1013,6 hPa 0,0 l/m 7,2 km/h (2 Bft) W-SW 0,93 h 0,229 mm 1,0 UV-I 429 W/m 12,3 C 18,0 C 12,8 km/h (3 Bft) 98,62 %
15.10.2016 16:00 18,0 C 68 % 1014,0 hPa 0,0 l/m 6,9 km/h (2 Bft) W 1,00 h 0,254 mm 0,5 UV-I 246 W/m 12,1 C 17,5 C 12,5 km/h (3 Bft) 99,14 %
15.10.2016 17:00 17,0 C 73 % 1014,5 hPa 0,0 l/m 5,4 km/h (1 Bft) W-SW 0,00 h 0,177 mm 0,0 UV-I 44 W/m 12,0 C 16,8 C 8,4 km/h (2 Bft) 98,18 %
15.10.2016 18:00 15,3 C 80 % 1015,0 hPa 0,0 l/m 3,8 km/h (1 Bft) W-SW 0,03 h 0,051 mm 0,0 UV-I 7 W/m 11,9 C 15,3 C 5,5 km/h (1 Bft) 99,46 %
15.10.2016 19:00 14,6 C 83 % 1015,7 hPa 0,0 l/m 2,5 km/h (1 Bft) S-SW 0,00 h 0,026 mm 0,0 UV-I 0 W/m 11,8 C 14,6 C 4,4 km/h (1 Bft) 98,18 %
15.10.2016 20:00 13,9 C 86 % 1016,2 hPa 0,0 l/m 1,1 km/h (1 Bft) S-SW 0,00 h 0,000 mm 0,0 UV-I 0 W/m 11,6 C 13,9 C 2,7 km/h (1 Bft) 98,50 %
15.10.2016 21:00 12,5 C 91 % 1016,8 hPa 0,0 l/m 2,0 km/h (1 Bft) O-NO 0,00 h 0,000 mm 0,0 UV-I 0 W/m 11,1 C 12,5 C 3,5 km/h (1 Bft) 98,43 %
15.10.2016 22:00 11,5 C 94 % 1017,3 hPa 0,0 l/m 2,3 km/h (1 Bft) S 0,00 h 0,000 mm 0,0 UV-I 0 W/m 10,6 C 11,5 C 3,5 km/h (1 Bft) 98,56 %
15.10.2016 23:00 11,2 C 95 % 1017,8 hPa 0,0 l/m 1,3 km/h (1 Bft) SW 0,00 h 0,000 mm 0,0 UV-I 0 W/m 10,3 C 11,2 C 2,3 km/h (1 Bft) 99,00 %
16.10.2016 00:00 10,7 C 96 % 1018,1 hPa 0,0 l/m 2,3 km/h (1 Bft) S-SO 0,00 h 0,000 mm 0,0 UV-I 0 W/m 10,1 C 10,7 C 4,3 km/h (1 Bft) 98,22 %
16.10.2016 01:00 11,1 C 95 % 1018,4 hPa 0,0 l/m 1,6 km/h (1 Bft) S 0,00 h 0,000 mm 0,0 UV-I 0 W/m 10,3 C 11,1 C 3,2 km/h (1 Bft) 98,65 %
16.10.2016 02:00 10,6 C 96 % 1018,9 hPa 0,0 l/m 1,7 km/h (1 Bft) S 0,00 h 0,000 mm 0,0 UV-I 0 W/m 9,9 C 10,6 C 3,0 km/h (1 Bft) 97,83 %
16.10.2016 03:00 11,0 C 96 % 1019,2 hPa 0,0 l/m 2,4 km/h (1 Bft) S 0,00 h 0,000 mm 0,0 UV-I 0 W/m 10,3 C 11,0 C 4,3 km/h (1 Bft) 99,48 %
16.10.2016 04:00 10,9 C 96 % 1019,2 hPa 0,0 l/m 0,8 km/h (0 Bft) S 0,00 h 0,000 mm 0,0 UV-I 0 W/m 10,3 C 10,9 C 2,1 km/h (1 Bft) 98,10 %
16.10.2016 05:00 10,1 C 97 % 1019,5 hPa 0,0 l/m 1,7 km/h (1 Bft) S 0,00 h 0,000 mm 0,0 UV-I 0 W/m 9,6 C 10,1 C 3,1 km/h (1 Bft) 99,33 %
16.10.2016 06:00 9,6 C 97 % 1019,9 hPa 0,0 l/m 1,0 km/h (0 Bft) S 0,00 h 0,000 mm 0,0 UV-I 0 W/m 9,1 C 9,6 C 2,0 km/h (1 Bft) 97,86 %
16.10.2016 07:00 9,5 C 97 % 1020,3 hPa 0,0 l/m 1,2 km/h (1 Bft) S 0,00 h 0,000 mm 0,0 UV-I 9 W/m 9,1 C 9,5 C 2,2 km/h (1 Bft) 99,59 %
16.10.2016 08:00 10,2 C 97 % 1020,9 hPa 0,0 l/m 0,9 km/h (0 Bft) S 0,00 h 0,000 mm 0,0 UV-I 37 W/m 9,7 C 10,2 C 1,9 km/h (1 Bft) 97,50 %
16.10.2016 09:00 11,4 C 95 % 1021,3 hPa 0,0 l/m 0,9 km/h (0 Bft) S 0,37 h 0,025 mm 0,5 UV-I 178 W/m 10,7 C 11,4 C 1,9 km/h (1 Bft) 99,35 %
16.10.2016 10:00 13,5 C 88 % 1021,4 hPa 0,0 l/m 1,0 km/h (0 Bft) S-SW 0,87 h 0,077 mm 1,1 UV-I 351 W/m 11,6 C 13,5 C 2,7 km/h (1 Bft) 98,16 %
16.10.2016 11:00 15,3 C 84 % 1021,5 hPa 0,0 l/m 1,8 km/h (1 Bft) N-NO 1,00 h 0,177 mm 1,6 UV-I 481 W/m 12,6 C 15,3 C 4,3 km/h (1 Bft) 98,36 %
16.10.2016 12:00 16,6 C 82 % 1021,6 hPa 0,0 l/m 5,3 km/h (1 Bft) NO 1,00 h 0,254 mm 1,9 UV-I 511 W/m 13,4 C 16,3 C 9,1 km/h (2 Bft) 98,39 %
16.10.2016 13:00 17,1 C 80 % 1021,5 hPa 0,0 l/m 3,1 km/h (1 Bft) N-NO 1,00 h 0,280 mm 1,9 UV-I 502 W/m 13,5 C 17,1 C 6,5 km/h (2 Bft) 98,13 %
16.10.2016 14:00 17,8 C 73 % 1021,1 hPa 0,0 l/m 3,2 km/h (1 Bft) NO 1,00 h 0,279 mm 1,5 UV-I 444 W/m 12,9 C 17,8 C 6,5 km/h (2 Bft) 98,86 %
16.10.2016 15:00 18,2 C 69 % 1020,9 hPa 0,0 l/m 5,1 km/h (1 Bft) NO 1,00 h 0,254 mm 0,9 UV-I 344 W/m 12,5 C 18,2 C 8,6 km/h (2 Bft) 97,47 %
16.10.2016 16:00 18,0 C 71 % 1020,8 hPa 0,0 l/m 5,2 km/h (1 Bft) O-NO 0,83 h 0,203 mm 0,5 UV-I 186 W/m 12,6 C 17,9 C 8,1 km/h (2 Bft) 99,21 %
16.10.2016 17:00 17,0 C 76 % 1020,9 hPa 0,0 l/m 3,9 km/h (1 Bft) O-NO 0,97 h 0,127 mm 0,0 UV-I 117 W/m 12,6 C 17,0 C 5,9 km/h (2 Bft) 97,56 %
16.10.2016 18:00 15,0 C 82 % 1021,0 hPa 0,0 l/m 2,2 km/h (1 Bft) O-NO 0,07 h 0,026 mm 0,0 UV-I 8 W/m 12,0 C 15,0 C 3,5 km/h (1 Bft) 99,16 %
16.10.2016 19:00 14,1 C 87 % 1021,3 hPa 0,0 l/m 5,9 km/h (2 Bft) O-NO 0,00 h 0,000 mm 0,0 UV-I 0 W/m 12,0 C 13,8 C 9,4 km/h (2 Bft) 98,50 %
16.10.2016 20:00 13,3 C 89 % 1021,6 hPa 0,0 l/m 4,7 km/h (1 Bft) O-NO 0,00 h 0,000 mm 0,0 UV-I 0 W/m 11,6 C 13,3 C 7,1 km/h (2 Bft) 97,52 %
16.10.2016 21:00 12,5 C 91 % 1021,9 hPa 0,0 l/m 9,4 km/h (2 Bft) NO 0,00 h 0,000 mm 0,0 UV-I 0 W/m 11,1 C 10,5 C 14,6 km/h (3 Bft) 98,48 %
16.10.2016 22:00 11,9 C 90 % 1022,4 hPa 0,0 l/m 7,6 km/h (2 Bft) NO 0,00 h 0,000 mm 0,0 UV-I 0 W/m 10,4 C 11,1 C 12,2 km/h (2 Bft) 98,46 %
16.10.2016 23:00 11,1 C 91 % 1022,5 hPa 0,0 l/m 7,6 km/h (2 Bft) O-NO 0,00 h 0,000 mm 0,0 UV-I 0 W/m 9,7 C 10,3 C 11,7 km/h (2 Bft) 98,75 %
Min-Datum _ 10.10.16 15.10.16 15.10.16 - 10.10.16 - - - - - 10.10.16 14.10.16 10.10.16 14.10.16
_ Min-Zeit 05:36 15:34 05:30 - 00:00 - - - - - 05:36 08:44 00:00 09:22
Minimum _ 1,6 C 65 % 1005,8 hPa - 0,0 km/h (0 Bft) - - - - - 1,2 C -2,8 C 0,0 km/h (0 Bft) 90,24 %
Max-Datum _ 15.10.16 10.10.16 10.10.16 12.10.16 13.10.16 - 13.10.16 14.10.16 14.10.16 13.10.16 16.10.16 15.10.16 13.10.16 10.10.16
_ Max-Zeit 15:28 06:46 00:52 02:00 16:04 - 15:03 14:00 12:32 13:40 13:16 15:30 15:50 00:04
Maximum _ 18,8 C 98 % 1023,2 hPa 2,2 l/m 31,3 km/h
O-NO (5 Bft)
- 0,05 h 0,280 mm 2,2 UV-I 799 W/m 14,4 C 18,8 C 43,5 km/h
O-NO (6 Bft)
100,00 %
Durchschnitt _ 8,6 C 90 % 1016,3 hPa #17,6 l/m 7,1 km/h (2 Bft) O-NO #29:34 h #8,839 mm 1,0 UV-I 189 W/m 6,9 C 6,9 C 11,0 km/h (2 Bft) 98,57 %